UAL3012 KEWR-EIDW
Flight info
| Callsign | UAL3012 |
|---|---|
| Flight time | N/A |
| Altitude | 39000 |
| Route | MERIT DCT HFD DCT PUT DCT BOS DCT TUSKY N355C JOOPY/M082F400 DCT 49N050W 51N040W 53N030W 54N020W DCT DOGAL DCT BEXET/N0471F410 DCT DEVOL DCT OLAPO OLAPO4L |
| Aircraft | B772/H-SDE2E3FGHIJ5LORVWXY/LB1D1 |
Departure
| Time | 2026-05-04 06:14 |
|---|---|
| Airport | Newark Liberty International Airport (KEWR) |
Arrival
| Time | N/A |
|---|---|
| Airport | Dublin Airport (EIDW) |
| Time | Latitude | Longitude | Altitude | Speed | Heading |
|---|---|---|---|---|---|
| 2026-05-04 05:23 | 40.69732 | -74.17643 | 26 ft | 0 kts | 156° |
| 2026-05-04 05:57 | 40.69735 | -74.17645 | 26 ft | 3 kts | 156° |
| 2026-05-04 05:57 | 40.69759 | -74.17660 | 25 ft | 4 kts | 147° |
| 2026-05-04 05:58 | 40.69779 | -74.17681 | 25 ft | 4 kts | 125° |
| 2026-05-04 05:58 | 40.69788 | -74.17708 | 25 ft | 3 kts | 91° |
| 2026-05-04 05:58 | 40.69790 | -74.17697 | 25 ft | 4 kts | 76° |
| 2026-05-04 05:58 | 40.69804 | -74.17673 | 26 ft | 4 kts | 45° |
| 2026-05-04 05:59 | 40.69820 | -74.17655 | 26 ft | 0 kts | 40° |
| 2026-05-04 06:07 | 40.69825 | -74.17649 | 26 ft | 6 kts | 40° |
| 2026-05-04 06:07 | 40.69873 | -74.17594 | 25 ft | 10 kts | 44° |
| 2026-05-04 06:08 | 40.69920 | -74.17530 | 26 ft | 10 kts | 44° |
| 2026-05-04 06:08 | 40.69969 | -74.17471 | 26 ft | 10 kts | 43° |
| 2026-05-04 06:08 | 40.70021 | -74.17401 | 26 ft | 11 kts | 40° |
| 2026-05-04 06:08 | 40.70082 | -74.17365 | 27 ft | 7 kts | 22° |
| 2026-05-04 06:09 | 40.70118 | -74.17303 | 27 ft | 11 kts | 77° |
| 2026-05-04 06:09 | 40.70113 | -74.17185 | 27 ft | 15 kts | 94° |
| 2026-05-04 06:11 | 40.70069 | -74.16511 | 29 ft | 0 kts | 95° |
| 2026-05-04 06:11 | 40.70068 | -74.16501 | 28 ft | 4 kts | 95° |
| 2026-05-04 06:13 | 40.69946 | -74.16415 | 27 ft | 0 kts | 205° |
| 2026-05-04 06:14 | 40.63890 | -74.19853 | 2679 ft | 216 kts | 214° |
| 2026-05-04 06:14 | 40.62614 | -74.20957 | 3118 ft | 223 kts | 219° |
| 2026-05-04 06:15 | 40.61281 | -74.22086 | 3540 ft | 236 kts | 217° |
| 2026-05-04 06:15 | 40.59843 | -74.23231 | 3974 ft | 247 kts | 215° |
| 2026-05-04 06:15 | 40.58284 | -74.24222 | 4392 ft | 257 kts | 198° |
| 2026-05-04 06:15 | 40.56450 | -74.24055 | 4898 ft | 277 kts | 161° |
| 2026-05-04 06:16 | 40.54868 | -74.22573 | 5600 ft | 285 kts | 133° |
| 2026-05-04 06:16 | 40.53854 | -74.20324 | 6249 ft | 291 kts | 109° |
| 2026-05-04 06:16 | 40.53606 | -74.17693 | 6880 ft | 293 kts | 81° |
| 2026-05-04 06:16 | 40.54299 | -74.15223 | 7486 ft | 289 kts | 50° |
| 2026-05-04 06:17 | 40.55679 | -74.13355 | 7999 ft | 284 kts | 38° |
| 2026-05-04 06:17 | 40.57175 | -74.11597 | 8533 ft | 290 kts | 38° |
| 2026-05-04 06:17 | 40.58679 | -74.09832 | 9287 ft | 290 kts | 38° |
| 2026-05-04 06:17 | 40.60191 | -74.08061 | 9965 ft | 293 kts | 37° |
| 2026-05-04 06:18 | 40.61734 | -74.06253 | 10381 ft | 306 kts | 37° |
| 2026-05-04 06:18 | 40.63388 | -74.04317 | 10548 ft | 330 kts | 38° |
| 2026-05-04 06:18 | 40.65150 | -74.02243 | 10931 ft | 346 kts | 38° |
| 2026-05-04 06:20 | 40.78476 | -73.86318 | 16247 ft | 389 kts | 38° |
| 2026-05-04 06:20 | 40.80492 | -73.83896 | 17058 ft | 393 kts | 38° |
| 2026-05-04 06:21 | 40.88759 | -73.73948 | 19822 ft | 409 kts | 38° |
| 2026-05-04 06:21 | 40.90867 | -73.71406 | 20484 ft | 413 kts | 37° |
| 2026-05-04 06:22 | 40.92278 | -73.69702 | 20913 ft | 415 kts | 37° |
| 2026-05-04 06:22 | 40.94416 | -73.67120 | 21550 ft | 419 kts | 37° |
| 2026-05-04 06:25 | 41.24015 | -73.31124 | 28603 ft | 468 kts | 37° |
| 2026-05-04 06:25 | 41.26410 | -73.28191 | 29057 ft | 471 kts | 37° |
| 2026-05-04 06:26 | 41.28826 | -73.25227 | 29486 ft | 474 kts | 37° |
| 2026-05-04 06:26 | 41.31262 | -73.22237 | 29951 ft | 477 kts | 37° |
| 2026-05-04 06:26 | 41.33702 | -73.19239 | 30319 ft | 479 kts | 37° |
| 2026-05-04 06:26 | 41.36136 | -73.16184 | 30580 ft | 485 kts | 40° |
| 2026-05-04 06:27 | 41.43813 | -73.01129 | 30673 ft | 495 kts | 56° |
| 2026-05-04 06:28 | 41.47253 | -72.93202 | 30680 ft | 495 kts | 56° |
| 2026-05-04 06:28 | 41.48999 | -72.89225 | 30792 ft | 499 kts | 56° |
| 2026-05-04 06:28 | 41.50762 | -72.85218 | 31131 ft | 501 kts | 56° |
| 2026-05-04 06:29 | 41.52527 | -72.81203 | 31476 ft | 502 kts | 56° |
| 2026-05-04 06:29 | 41.54296 | -72.77173 | 31789 ft | 505 kts | 56° |
| 2026-05-04 06:29 | 41.56078 | -72.73106 | 32049 ft | 509 kts | 56° |
| 2026-05-04 06:29 | 41.57867 | -72.69013 | 32290 ft | 512 kts | 56° |
| 2026-05-04 06:30 | 41.59669 | -72.64884 | 32550 ft | 515 kts | 56° |
| 2026-05-04 06:30 | 41.61471 | -72.60749 | 32803 ft | 518 kts | 56° |
| 2026-05-04 06:30 | 41.63294 | -72.56561 | 33071 ft | 520 kts | 56° |
| 2026-05-04 06:30 | 41.65120 | -72.52383 | 33339 ft | 522 kts | 56° |
| 2026-05-04 06:31 | 41.66988 | -72.48206 | 33564 ft | 525 kts | 55° |
| 2026-05-04 06:31 | 41.68880 | -72.44028 | 33801 ft | 527 kts | 55° |
| 2026-05-04 06:31 | 41.70788 | -72.39825 | 34036 ft | 529 kts | 55° |
| 2026-05-04 06:31 | 41.72693 | -72.35617 | 34312 ft | 528 kts | 56° |
| 2026-05-04 06:32 | 41.74593 | -72.31399 | 34639 ft | 527 kts | 56° |
| 2026-05-04 06:33 | 41.87740 | -72.01933 | 36477 ft | 526 kts | 56° |
| 2026-05-04 06:34 | 41.89615 | -71.97708 | 36713 ft | 527 kts | 56° |
| 2026-05-04 06:34 | 41.91485 | -71.93485 | 36876 ft | 528 kts | 56° |
| 2026-05-04 06:34 | 41.95241 | -71.84994 | 36952 ft | 529 kts | 56° |
| 2026-05-04 06:36 | 42.10934 | -71.51923 | 36939 ft | 525 kts | 54° |
| 2026-05-04 06:37 | 42.14843 | -71.43626 | 36931 ft | 525 kts | 54° |
| 2026-05-04 06:37 | 42.18752 | -71.35307 | 36937 ft | 525 kts | 54° |
| 2026-05-04 06:38 | 42.22662 | -71.26970 | 36939 ft | 526 kts | 55° |